sensor_id;sensor_type;location;lat;lon;timestamp;temperature;humidity
14924;DHT22;7554;43.600;1.480;2023-11-19T00:02:04;9.70;1.00
14924;DHT22;7554;43.600;1.480;2023-11-19T00:04:36;9.60;1.00
14924;DHT22;7554;43.600;1.480;2023-11-19T00:07:04;9.60;1.00
14924;DHT22;7554;43.600;1.480;2023-11-19T00:09:33;9.60;1.00
14924;DHT22;7554;43.600;1.480;2023-11-19T00:12:03;9.60;1.00
14924;DHT22;7554;43.600;1.480;2023-11-19T00:14:31;9.50;1.00
14924;DHT22;7554;43.600;1.480;2023-11-19T00:16:58;9.50;1.00
14924;DHT22;7554;43.600;1.480;2023-11-19T00:19:27;9.50;1.00
14924;DHT22;7554;43.600;1.480;2023-11-19T00:21:54;9.40;1.00
14924;DHT22;7554;43.600;1.480;2023-11-19T00:24:21;9.40;1.00
14924;DHT22;7554;43.600;1.480;2023-11-19T00:26:48;9.50;1.00
14924;DHT22;7554;43.600;1.480;2023-11-19T00:29:16;9.40;1.00
14924;DHT22;7554;43.600;1.480;2023-11-19T00:31:46;9.40;1.00
14924;DHT22;7554;43.600;1.480;2023-11-19T00:34:13;9.40;1.00
14924;DHT22;7554;43.600;1.480;2023-11-19T00:36:42;9.40;1.00
14924;DHT22;7554;43.600;1.480;2023-11-19T00:39:10;9.40;1.00
14924;DHT22;7554;43.600;1.480;2023-11-19T00:41:40;9.40;1.00
14924;DHT22;7554;43.600;1.480;2023-11-19T00:44:08;9.40;1.00
14924;DHT22;7554;43.600;1.480;2023-11-19T00:46:35;9.30;1.00
14924;DHT22;7554;43.600;1.480;2023-11-19T00:49:02;9.30;1.00
14924;DHT22;7554;43.600;1.480;2023-11-19T00:51:29;9.30;1.00
14924;DHT22;7554;43.600;1.480;2023-11-19T00:53:59;9.20;1.00
14924;DHT22;7554;43.600;1.480;2023-11-19T00:56:26;9.20;1.00
14924;DHT22;7554;43.600;1.480;2023-11-19T00:58:54;9.20;1.00
14924;DHT22;7554;43.600;1.480;2023-11-19T01:01:21;9.10;1.00
14924;DHT22;7554;43.600;1.480;2023-11-19T01:03:49;9.10;1.00
14924;DHT22;7554;43.600;1.480;2023-11-19T01:06:27;9.10;1.00
14924;DHT22;7554;43.600;1.480;2023-11-19T01:08:55;9.10;1.00
14924;DHT22;7554;43.600;1.480;2023-11-19T01:11:26;9.10;1.00
14924;DHT22;7554;43.600;1.480;2023-11-19T01:13:54;9.10;1.00
14924;DHT22;7554;43.600;1.480;2023-11-19T01:16:21;9.00;1.00
14924;DHT22;7554;43.600;1.480;2023-11-19T01:18:48;9.00;1.00
14924;DHT22;7554;43.600;1.480;2023-11-19T01:21:16;9.00;1.00
14924;DHT22;7554;43.600;1.480;2023-11-19T01:23:43;9.00;1.00
14924;DHT22;7554;43.600;1.480;2023-11-19T01:26:11;8.90;1.00
14924;DHT22;7554;43.600;1.480;2023-11-19T01:28:41;8.90;1.00
14924;DHT22;7554;43.600;1.480;2023-11-19T01:31:10;8.90;1.00
14924;DHT22;7554;43.600;1.480;2023-11-19T01:33:38;8.90;1.00
14924;DHT22;7554;43.600;1.480;2023-11-19T01:36:08;8.90;1.00
14924;DHT22;7554;43.600;1.480;2023-11-19T01:38:36;9.00;1.00
14924;DHT22;7554;43.600;1.480;2023-11-19T01:41:04;8.90;1.00
14924;DHT22;7554;43.600;1.480;2023-11-19T01:43:34;8.90;1.00
14924;DHT22;7554;43.600;1.480;2023-11-19T01:46:05;8.90;1.00
14924;DHT22;7554;43.600;1.480;2023-11-19T01:48:34;8.90;1.00
14924;DHT22;7554;43.600;1.480;2023-11-19T01:51:02;8.90;1.00
14924;DHT22;7554;43.600;1.480;2023-11-19T01:53:30;8.80;1.00
14924;DHT22;7554;43.600;1.480;2023-11-19T01:55:58;8.80;1.00
14924;DHT22;7554;43.600;1.480;2023-11-19T01:58:26;8.80;1.00
14924;DHT22;7554;43.600;1.480;2023-11-19T02:00:56;8.70;1.00
14924;DHT22;7554;43.600;1.480;2023-11-19T02:03:26;8.70;1.00
14924;DHT22;7554;43.600;1.480;2023-11-19T02:05:55;8.70;1.00
14924;DHT22;7554;43.600;1.480;2023-11-19T02:08:22;8.70;1.00
14924;DHT22;7554;43.600;1.480;2023-11-19T02:10:49;8.60;1.00
14924;DHT22;7554;43.600;1.480;2023-11-19T02:13:17;8.60;1.00
14924;DHT22;7554;43.600;1.480;2023-11-19T02:15:44;8.60;1.00
14924;DHT22;7554;43.600;1.480;2023-11-19T02:18:21;8.60;1.00
14924;DHT22;7554;43.600;1.480;2023-11-19T02:20:50;8.60;1.00
14924;DHT22;7554;43.600;1.480;2023-11-19T02:23:18;8.60;1.00
14924;DHT22;7554;43.600;1.480;2023-11-19T02:25:55;8.60;1.00
14924;DHT22;7554;43.600;1.480;2023-11-19T02:28:27;8.60;1.00
14924;DHT22;7554;43.600;1.480;2023-11-19T02:30:54;8.60;1.00
14924;DHT22;7554;43.600;1.480;2023-11-19T02:33:22;8.60;1.00
14924;DHT22;7554;43.600;1.480;2023-11-19T02:35:50;8.50;1.00
14924;DHT22;7554;43.600;1.480;2023-11-19T02:38:18;8.60;1.00
14924;DHT22;7554;43.600;1.480;2023-11-19T02:40:47;8.50;1.00
14924;DHT22;7554;43.600;1.480;2023-11-19T02:43:15;8.50;1.00
14924;DHT22;7554;43.600;1.480;2023-11-19T02:45:44;8.50;1.00
14924;DHT22;7554;43.600;1.480;2023-11-19T02:48:11;8.50;1.00
14924;DHT22;7554;43.600;1.480;2023-11-19T02:50:40;8.50;1.00
14924;DHT22;7554;43.600;1.480;2023-11-19T02:53:07;8.50;1.00
14924;DHT22;7554;43.600;1.480;2023-11-19T02:55:34;8.50;1.00
14924;DHT22;7554;43.600;1.480;2023-11-19T02:58:04;8.50;1.00
14924;DHT22;7554;43.600;1.480;2023-11-19T03:00:43;8.50;1.00
14924;DHT22;7554;43.600;1.480;2023-11-19T03:03:18;8.50;1.00
14924;DHT22;7554;43.600;1.480;2023-11-19T03:05:46;8.50;1.00
14924;DHT22;7554;43.600;1.480;2023-11-19T03:08:14;8.40;1.00
14924;DHT22;7554;43.600;1.480;2023-11-19T03:10:42;8.40;1.00
14924;DHT22;7554;43.600;1.480;2023-11-19T03:13:12;8.40;1.00
14924;DHT22;7554;43.600;1.480;2023-11-19T03:15:40;8.50;1.00
14924;DHT22;7554;43.600;1.480;2023-11-19T03:18:09;8.50;1.00
14924;DHT22;7554;43.600;1.480;2023-11-19T03:20:36;8.50;1.00
14924;DHT22;7554;43.600;1.480;2023-11-19T03:23:03;8.50;1.00
14924;DHT22;7554;43.600;1.480;2023-11-19T03:25:31;8.50;1.00
14924;DHT22;7554;43.600;1.480;2023-11-19T03:28:00;8.50;1.00
14924;DHT22;7554;43.600;1.480;2023-11-19T03:30:28;8.40;1.00
14924;DHT22;7554;43.600;1.480;2023-11-19T03:32:56;8.50;1.00
14924;DHT22;7554;43.600;1.480;2023-11-19T03:35:25;8.50;1.00
14924;DHT22;7554;43.600;1.480;2023-11-19T03:37:54;8.50;1.00
14924;DHT22;7554;43.600;1.480;2023-11-19T03:40:21;8.40;1.00
14924;DHT22;7554;43.600;1.480;2023-11-19T03:42:49;8.40;1.00
14924;DHT22;7554;43.600;1.480;2023-11-19T03:45:17;8.40;1.00
14924;DHT22;7554;43.600;1.480;2023-11-19T03:47:44;8.40;1.00
14924;DHT22;7554;43.600;1.480;2023-11-19T03:50:11;8.40;1.00
14924;DHT22;7554;43.600;1.480;2023-11-19T03:52:42;8.40;1.00
14924;DHT22;7554;43.600;1.480;2023-11-19T03:55:10;8.30;1.00
14924;DHT22;7554;43.600;1.480;2023-11-19T03:57:38;8.30;1.00
14924;DHT22;7554;43.600;1.480;2023-11-19T04:00:06;8.30;1.00
14924;DHT22;7554;43.600;1.480;2023-11-19T04:02:36;8.30;1.00
14924;DHT22;7554;43.600;1.480;2023-11-19T04:05:03;8.30;1.00
14924;DHT22;7554;43.600;1.480;2023-11-19T04:07:32;8.30;1.00
14924;DHT22;7554;43.600;1.480;2023-11-19T04:10:01;8.30;1.00
14924;DHT22;7554;43.600;1.480;2023-11-19T04:12:29;8.30;1.00
14924;DHT22;7554;43.600;1.480;2023-11-19T04:14:56;8.20;1.00
14924;DHT22;7554;43.600;1.480;2023-11-19T04:17:24;8.20;1.00
14924;DHT22;7554;43.600;1.480;2023-11-19T04:19:52;8.20;1.00
14924;DHT22;7554;43.600;1.480;2023-11-19T04:22:19;8.10;1.00
14924;DHT22;7554;43.600;1.480;2023-11-19T04:24:47;8.10;1.00
14924;DHT22;7554;43.600;1.480;2023-11-19T04:27:16;8.10;1.00
14924;DHT22;7554;43.600;1.480;2023-11-19T04:29:43;8.00;1.00
14924;DHT22;7554;43.600;1.480;2023-11-19T04:32:11;8.00;1.00
14924;DHT22;7554;43.600;1.480;2023-11-19T04:34:38;8.00;1.00
14924;DHT22;7554;43.600;1.480;2023-11-19T04:37:06;8.00;1.00
14924;DHT22;7554;43.600;1.480;2023-11-19T04:39:33;8.00;1.00
14924;DHT22;7554;43.600;1.480;2023-11-19T04:42:00;8.00;1.00
14924;DHT22;7554;43.600;1.480;2023-11-19T04:44:29;8.00;1.00
14924;DHT22;7554;43.600;1.480;2023-11-19T04:46:57;7.90;1.00
14924;DHT22;7554;43.600;1.480;2023-11-19T04:49:24;7.90;1.00
14924;DHT22;7554;43.600;1.480;2023-11-19T04:51:52;7.90;1.00
14924;DHT22;7554;43.600;1.480;2023-11-19T04:54:20;7.80;1.00
14924;DHT22;7554;43.600;1.480;2023-11-19T04:56:47;7.80;1.00
14924;DHT22;7554;43.600;1.480;2023-11-19T04:59:14;7.80;1.00
14924;DHT22;7554;43.600;1.480;2023-11-19T05:01:46;7.80;1.00
14924;DHT22;7554;43.600;1.480;2023-11-19T05:04:15;7.60;1.00
14924;DHT22;7554;43.600;1.480;2023-11-19T05:06:44;7.60;1.00
14924;DHT22;7554;43.600;1.480;2023-11-19T05:09:11;7.60;1.00
14924;DHT22;7554;43.600;1.480;2023-11-19T05:11:39;7.60;1.00
14924;DHT22;7554;43.600;1.480;2023-11-19T05:14:07;7.60;1.00
14924;DHT22;7554;43.600;1.480;2023-11-19T05:16:34;7.50;1.00
14924;DHT22;7554;43.600;1.480;2023-11-19T05:19:03;7.50;1.00
14924;DHT22;7554;43.600;1.480;2023-11-19T05:21:31;7.60;1.00
14924;DHT22;7554;43.600;1.480;2023-11-19T05:23:58;7.60;1.00
14924;DHT22;7554;43.600;1.480;2023-11-19T05:26:25;7.60;1.00
14924;DHT22;7554;43.600;1.480;2023-11-19T05:28:53;7.50;1.00
14924;DHT22;7554;43.600;1.480;2023-11-19T05:31:20;7.50;1.00
14924;DHT22;7554;43.600;1.480;2023-11-19T05:33:47;7.50;1.00
14924;DHT22;7554;43.600;1.480;2023-11-19T05:36:16;7.50;1.00
14924;DHT22;7554;43.600;1.480;2023-11-19T05:38:43;7.50;1.00
14924;DHT22;7554;43.600;1.480;2023-11-19T05:41:11;7.50;1.00
14924;DHT22;7554;43.600;1.480;2023-11-19T05:43:38;7.50;1.00
14924;DHT22;7554;43.600;1.480;2023-11-19T05:46:07;7.40;1.00
14924;DHT22;7554;43.600;1.480;2023-11-19T05:48:34;7.40;1.00
14924;DHT22;7554;43.600;1.480;2023-11-19T05:51:02;7.50;1.00
14924;DHT22;7554;43.600;1.480;2023-11-19T05:53:30;7.40;1.00
14924;DHT22;7554;43.600;1.480;2023-11-19T05:55:58;7.50;1.00
14924;DHT22;7554;43.600;1.480;2023-11-19T05:58:29;7.40;1.00
14924;DHT22;7554;43.600;1.480;2023-11-19T06:00:58;7.50;1.00
14924;DHT22;7554;43.600;1.480;2023-11-19T06:03:26;7.50;1.00
14924;DHT22;7554;43.600;1.480;2023-11-19T06:05:54;7.50;1.00
14924;DHT22;7554;43.600;1.480;2023-11-19T06:08:21;7.50;1.00
14924;DHT22;7554;43.600;1.480;2023-11-19T06:10:50;7.60;1.00
14924;DHT22;7554;43.600;1.480;2023-11-19T06:13:17;7.60;1.00
14924;DHT22;7554;43.600;1.480;2023-11-19T06:15:45;7.60;1.00
14924;DHT22;7554;43.600;1.480;2023-11-19T06:18:12;7.50;1.00
14924;DHT22;7554;43.600;1.480;2023-11-19T06:20:40;7.50;1.00
14924;DHT22;7554;43.600;1.480;2023-11-19T06:23:08;7.50;1.00
14924;DHT22;7554;43.600;1.480;2023-11-19T06:25:35;7.50;1.00
14924;DHT22;7554;43.600;1.480;2023-11-19T06:28:06;7.50;1.00
14924;DHT22;7554;43.600;1.480;2023-11-19T06:30:33;7.50;1.00
14924;DHT22;7554;43.600;1.480;2023-11-19T06:33:02;7.60;1.00
14924;DHT22;7554;43.600;1.480;2023-11-19T06:35:29;7.50;1.00
14924;DHT22;7554;43.600;1.480;2023-11-19T06:38:02;7.50;1.00
14924;DHT22;7554;43.600;1.480;2023-11-19T06:40:30;7.50;1.00
14924;DHT22;7554;43.600;1.480;2023-11-19T06:42:57;7.50;1.00
14924;DHT22;7554;43.600;1.480;2023-11-19T06:45:26;7.50;1.00
14924;DHT22;7554;43.600;1.480;2023-11-19T06:47:53;7.60;1.00
14924;DHT22;7554;43.600;1.480;2023-11-19T06:50:21;7.60;1.00
14924;DHT22;7554;43.600;1.480;2023-11-19T06:52:48;7.60;1.00
14924;DHT22;7554;43.600;1.480;2023-11-19T06:55:16;7.60;1.00
14924;DHT22;7554;43.600;1.480;2023-11-19T06:57:43;7.60;1.00
14924;DHT22;7554;43.600;1.480;2023-11-19T07:00:11;7.90;1.00
14924;DHT22;7554;43.600;1.480;2023-11-19T07:02:40;8.30;1.00
14924;DHT22;7554;43.600;1.480;2023-11-19T07:05:08;8.80;1.00
14924;DHT22;7554;43.600;1.480;2023-11-19T07:07:35;9.30;1.00
14924;DHT22;7554;43.600;1.480;2023-11-19T07:10:03;10.00;1.00
14924;DHT22;7554;43.600;1.480;2023-11-19T07:12:32;10.60;1.00
14924;DHT22;7554;43.600;1.480;2023-11-19T07:15:01;11.20;1.00
14924;DHT22;7554;43.600;1.480;2023-11-19T07:17:29;11.70;1.00
14924;DHT22;7554;43.600;1.480;2023-11-19T07:19:58;12.00;1.00
14924;DHT22;7554;43.600;1.480;2023-11-19T07:22:26;12.30;1.00
14924;DHT22;7554;43.600;1.480;2023-11-19T07:24:55;12.40;1.00
14924;DHT22;7554;43.600;1.480;2023-11-19T07:27:22;12.40;1.00
14924;DHT22;7554;43.600;1.480;2023-11-19T07:29:50;12.30;1.00
14924;DHT22;7554;43.600;1.480;2023-11-19T07:32:17;12.20;1.00
14924;DHT22;7554;43.600;1.480;2023-11-19T07:34:44;11.00;1.00
14924;DHT22;7554;43.600;1.480;2023-11-19T07:37:13;10.50;1.00
14924;DHT22;7554;43.600;1.480;2023-11-19T07:39:42;10.30;1.00
14924;DHT22;7554;43.600;1.480;2023-11-19T07:42:09;10.30;1.00
14924;DHT22;7554;43.600;1.480;2023-11-19T07:44:37;10.40;1.00
14924;DHT22;7554;43.600;1.480;2023-11-19T07:47:04;10.50;1.00
14924;DHT22;7554;43.600;1.480;2023-11-19T07:49:32;10.60;1.00
14924;DHT22;7554;43.600;1.480;2023-11-19T07:51:59;10.70;1.00
14924;DHT22;7554;43.600;1.480;2023-11-19T07:54:30;10.70;1.00
14924;DHT22;7554;43.600;1.480;2023-11-19T07:56:57;10.80;1.00
14924;DHT22;7554;43.600;1.480;2023-11-19T07:59:25;10.80;1.00
14924;DHT22;7554;43.600;1.480;2023-11-19T08:01:52;10.70;1.00
14924;DHT22;7554;43.600;1.480;2023-11-19T08:04:19;10.80;1.00
14924;DHT22;7554;43.600;1.480;2023-11-19T08:06:46;10.90;1.00
14924;DHT22;7554;43.600;1.480;2023-11-19T08:09:14;10.80;1.00
14924;DHT22;7554;43.600;1.480;2023-11-19T08:11:43;10.90;1.00
14924;DHT22;7554;43.600;1.480;2023-11-19T08:14:10;11.00;1.00
14924;DHT22;7554;43.600;1.480;2023-11-19T08:16:39;11.00;1.00
14924;DHT22;7554;43.600;1.480;2023-11-19T08:19:07;11.00;1.00
14924;DHT22;7554;43.600;1.480;2023-11-19T08:21:34;11.10;1.00
14924;DHT22;7554;43.600;1.480;2023-11-19T08:24:01;11.10;1.00
14924;DHT22;7554;43.600;1.480;2023-11-19T08:26:29;11.00;1.00
14924;DHT22;7554;43.600;1.480;2023-11-19T08:28:58;11.00;1.00
14924;DHT22;7554;43.600;1.480;2023-11-19T08:31:25;11.10;1.00
14924;DHT22;7554;43.600;1.480;2023-11-19T08:33:52;11.10;1.00
14924;DHT22;7554;43.600;1.480;2023-11-19T08:36:20;11.20;1.00
14924;DHT22;7554;43.600;1.480;2023-11-19T08:38:47;11.20;1.00
14924;DHT22;7554;43.600;1.480;2023-11-19T08:41:16;11.30;1.00
14924;DHT22;7554;43.600;1.480;2023-11-19T08:43:43;11.30;1.00
14924;DHT22;7554;43.600;1.480;2023-11-19T08:46:12;11.30;1.00
14924;DHT22;7554;43.600;1.480;2023-11-19T08:48:39;11.20;1.00
14924;DHT22;7554;43.600;1.480;2023-11-19T08:51:07;11.20;1.00
14924;DHT22;7554;43.600;1.480;2023-11-19T08:53:34;11.20;1.00
14924;DHT22;7554;43.600;1.480;2023-11-19T08:56:01;11.30;1.00
14924;DHT22;7554;43.600;1.480;2023-11-19T08:58:29;11.30;1.00
14924;DHT22;7554;43.600;1.480;2023-11-19T09:00:56;11.30;1.00
14924;DHT22;7554;43.600;1.480;2023-11-19T09:03:25;11.20;1.00
14924;DHT22;7554;43.600;1.480;2023-11-19T09:05:53;11.30;1.00
14924;DHT22;7554;43.600;1.480;2023-11-19T09:08:20;11.40;1.00
14924;DHT22;7554;43.600;1.480;2023-11-19T09:10:47;11.60;1.00
14924;DHT22;7554;43.600;1.480;2023-11-19T09:13:15;11.70;1.00
14924;DHT22;7554;43.600;1.480;2023-11-19T09:15:42;11.70;1.00
14924;DHT22;7554;43.600;1.480;2023-11-19T09:18:09;11.70;1.00
14924;DHT22;7554;43.600;1.480;2023-11-19T09:20:38;11.70;1.00
14924;DHT22;7554;43.600;1.480;2023-11-19T09:23:05;11.50;1.00
14924;DHT22;7554;43.600;1.480;2023-11-19T09:25:34;11.60;1.00
14924;DHT22;7554;43.600;1.480;2023-11-19T09:28:02;11.60;1.00
14924;DHT22;7554;43.600;1.480;2023-11-19T09:30:29;11.70;1.00
14924;DHT22;7554;43.600;1.480;2023-11-19T09:32:59;11.70;1.00
14924;DHT22;7554;43.600;1.480;2023-11-19T09:35:26;11.80;1.00
14924;DHT22;7554;43.600;1.480;2023-11-19T09:37:55;11.80;1.00
14924;DHT22;7554;43.600;1.480;2023-11-19T09:40:23;11.90;1.00
14924;DHT22;7554;43.600;1.480;2023-11-19T09:42:50;11.90;1.00
14924;DHT22;7554;43.600;1.480;2023-11-19T09:45:19;12.00;1.00
14924;DHT22;7554;43.600;1.480;2023-11-19T09:47:47;12.00;1.00
14924;DHT22;7554;43.600;1.480;2023-11-19T09:50:19;12.10;1.00
14924;DHT22;7554;43.600;1.480;2023-11-19T09:52:47;12.10;1.00
14924;DHT22;7554;43.600;1.480;2023-11-19T09:55:16;12.20;1.00
14924;DHT22;7554;43.600;1.480;2023-11-19T09:57:43;12.30;1.00
14924;DHT22;7554;43.600;1.480;2023-11-19T10:00:14;12.30;1.00
14924;DHT22;7554;43.600;1.480;2023-11-19T10:02:43;12.40;1.00
14924;DHT22;7554;43.600;1.480;2023-11-19T10:05:12;12.50;1.00
14924;DHT22;7554;43.600;1.480;2023-11-19T10:07:40;12.50;1.00
14924;DHT22;7554;43.600;1.480;2023-11-19T10:10:08;12.60;1.00
14924;DHT22;7554;43.600;1.480;2023-11-19T10:12:41;12.60;1.00
14924;DHT22;7554;43.600;1.480;2023-11-19T10:15:14;12.70;1.00
14924;DHT22;7554;43.600;1.480;2023-11-19T10:17:44;12.70;1.00
14924;DHT22;7554;43.600;1.480;2023-11-19T10:20:11;12.80;1.00
14924;DHT22;7554;43.600;1.480;2023-11-19T10:22:38;12.80;1.00
14924;DHT22;7554;43.600;1.480;2023-11-19T10:25:24;12.90;1.00
14924;DHT22;7554;43.600;1.480;2023-11-19T10:27:53;12.90;1.00
14924;DHT22;7554;43.600;1.480;2023-11-19T10:30:22;13.00;1.00
14924;DHT22;7554;43.600;1.480;2023-11-19T10:33:06;13.10;1.00
14924;DHT22;7554;43.600;1.480;2023-11-19T10:35:34;13.10;1.00
14924;DHT22;7554;43.600;1.480;2023-11-19T10:38:01;13.10;1.00
14924;DHT22;7554;43.600;1.480;2023-11-19T10:40:40;13.10;1.00
14924;DHT22;7554;43.600;1.480;2023-11-19T10:43:09;13.20;1.00
14924;DHT22;7554;43.600;1.480;2023-11-19T10:45:36;13.20;1.00
14924;DHT22;7554;43.600;1.480;2023-11-19T10:48:05;13.20;1.00
14924;DHT22;7554;43.600;1.480;2023-11-19T10:50:33;13.30;1.00
14924;DHT22;7554;43.600;1.480;2023-11-19T10:53:02;13.40;1.00
14924;DHT22;7554;43.600;1.480;2023-11-19T10:55:31;13.40;1.00
14924;DHT22;7554;43.600;1.480;2023-11-19T10:58:01;13.50;1.00
14924;DHT22;7554;43.600;1.480;2023-11-19T11:00:34;13.60;1.00
14924;DHT22;7554;43.600;1.480;2023-11-19T11:03:10;13.50;1.00
14924;DHT22;7554;43.600;1.480;2023-11-19T11:05:38;13.50;1.00
14924;DHT22;7554;43.600;1.480;2023-11-19T11:08:06;13.60;1.00
14924;DHT22;7554;43.600;1.480;2023-11-19T11:10:41;13.60;1.00
14924;DHT22;7554;43.600;1.480;2023-11-19T11:13:10;13.70;1.00
14924;DHT22;7554;43.600;1.480;2023-11-19T11:15:39;13.80;1.00
14924;DHT22;7554;43.600;1.480;2023-11-19T11:18:09;13.80;1.00
14924;DHT22;7554;43.600;1.480;2023-11-19T11:20:36;13.80;1.00
14924;DHT22;7554;43.600;1.480;2023-11-19T11:23:36;13.90;1.00
14924;DHT22;7554;43.600;1.480;2023-11-19T11:26:20;13.90;1.00
14924;DHT22;7554;43.600;1.480;2023-11-19T11:28:57;13.90;1.00
14924;DHT22;7554;43.600;1.480;2023-11-19T11:31:34;14.00;1.00
14924;DHT22;7554;43.600;1.480;2023-11-19T11:34:21;14.10;1.00
14924;DHT22;7554;43.600;1.480;2023-11-19T11:37:06;14.10;1.00
14924;DHT22;7554;43.600;1.480;2023-11-19T11:39:40;14.20;1.00
14924;DHT22;7554;43.600;1.480;2023-11-19T11:42:35;14.30;1.00
14924;DHT22;7554;43.600;1.480;2023-11-19T11:45:04;14.20;1.00
14924;DHT22;7554;43.600;1.480;2023-11-19T11:48:10;14.30;1.00
14924;DHT22;7554;43.600;1.480;2023-11-19T11:50:53;14.30;1.00
14924;DHT22;7554;43.600;1.480;2023-11-19T11:53:22;14.30;1.00
14924;DHT22;7554;43.600;1.480;2023-11-19T11:55:57;14.50;1.00
14924;DHT22;7554;43.600;1.480;2023-11-19T11:58:27;14.80;1.00
14924;DHT22;7554;43.600;1.480;2023-11-19T12:00:58;14.60;1.00
14924;DHT22;7554;43.600;1.480;2023-11-19T12:03:28;14.60;1.00
14924;DHT22;7554;43.600;1.480;2023-11-19T12:05:56;14.50;1.00
14924;DHT22;7554;43.600;1.480;2023-11-19T12:08:29;14.50;1.00
14924;DHT22;7554;43.600;1.480;2023-11-19T12:10:58;14.80;1.00
14924;DHT22;7554;43.600;1.480;2023-11-19T12:13:42;14.90;1.00
14924;DHT22;7554;43.600;1.480;2023-11-19T12:16:13;14.70;1.00
14924;DHT22;7554;43.600;1.480;2023-11-19T12:18:42;14.70;1.00
14924;DHT22;7554;43.600;1.480;2023-11-19T12:21:09;14.70;1.00
14924;DHT22;7554;43.600;1.480;2023-11-19T12:23:45;14.80;1.00
14924;DHT22;7554;43.600;1.480;2023-11-19T12:26:33;14.70;1.00
14924;DHT22;7554;43.600;1.480;2023-11-19T12:29:01;14.70;1.00
14924;DHT22;7554;43.600;1.480;2023-11-19T12:31:32;14.70;1.00
14924;DHT22;7554;43.600;1.480;2023-11-19T12:34:06;14.70;1.00
14924;DHT22;7554;43.600;1.480;2023-11-19T12:36:34;14.70;1.00
14924;DHT22;7554;43.600;1.480;2023-11-19T12:39:02;14.70;1.00
14924;DHT22;7554;43.600;1.480;2023-11-19T12:41:29;14.80;1.00
14924;DHT22;7554;43.600;1.480;2023-11-19T12:44:09;14.70;1.00
14924;DHT22;7554;43.600;1.480;2023-11-19T12:46:37;14.70;1.00
14924;DHT22;7554;43.600;1.480;2023-11-19T12:49:06;14.80;1.00
14924;DHT22;7554;43.600;1.480;2023-11-19T12:51:34;14.90;1.00
14924;DHT22;7554;43.600;1.480;2023-11-19T12:54:01;14.90;1.00
14924;DHT22;7554;43.600;1.480;2023-11-19T12:56:30;14.90;1.00
14924;DHT22;7554;43.600;1.480;2023-11-19T12:59:01;15.00;1.00
14924;DHT22;7554;43.600;1.480;2023-11-19T13:01:37;14.90;1.00
14924;DHT22;7554;43.600;1.480;2023-11-19T13:04:17;14.80;1.00
14924;DHT22;7554;43.600;1.480;2023-11-19T13:06:45;15.00;1.00
14924;DHT22;7554;43.600;1.480;2023-11-19T13:09:22;15.10;1.00
14924;DHT22;7554;43.600;1.480;2023-11-19T13:11:50;15.10;1.00
14924;DHT22;7554;43.600;1.480;2023-11-19T13:14:17;15.00;1.00
14924;DHT22;7554;43.600;1.480;2023-11-19T13:16:45;15.00;1.00
14924;DHT22;7554;43.600;1.480;2023-11-19T13:19:13;15.00;1.00
14924;DHT22;7554;43.600;1.480;2023-11-19T13:21:43;15.00;1.00
14924;DHT22;7554;43.600;1.480;2023-11-19T13:24:12;15.00;1.00
14924;DHT22;7554;43.600;1.480;2023-11-19T13:26:40;15.00;1.00
14924;DHT22;7554;43.600;1.480;2023-11-19T13:29:07;15.00;1.00
14924;DHT22;7554;43.600;1.480;2023-11-19T13:31:36;15.00;1.00
14924;DHT22;7554;43.600;1.480;2023-11-19T13:34:04;15.00;1.00
14924;DHT22;7554;43.600;1.480;2023-11-19T13:36:33;15.10;1.00
14924;DHT22;7554;43.600;1.480;2023-11-19T13:39:02;15.10;1.00
14924;DHT22;7554;43.600;1.480;2023-11-19T13:41:29;15.10;1.00
14924;DHT22;7554;43.600;1.480;2023-11-19T13:43:57;15.10;1.00
14924;DHT22;7554;43.600;1.480;2023-11-19T13:46:24;15.10;1.00
14924;DHT22;7554;43.600;1.480;2023-11-19T13:48:51;15.10;1.00
14924;DHT22;7554;43.600;1.480;2023-11-19T13:51:18;15.00;1.00
14924;DHT22;7554;43.600;1.480;2023-11-19T13:53:46;15.00;1.00
14924;DHT22;7554;43.600;1.480;2023-11-19T13:56:15;15.10;1.00
14924;DHT22;7554;43.600;1.480;2023-11-19T13:58:43;15.10;1.00
14924;DHT22;7554;43.600;1.480;2023-11-19T14:01:11;15.30;1.00
14924;DHT22;7554;43.600;1.480;2023-11-19T14:03:38;15.20;1.00
14924;DHT22;7554;43.600;1.480;2023-11-19T14:06:06;15.20;1.00
14924;DHT22;7554;43.600;1.480;2023-11-19T14:08:34;15.20;1.00
14924;DHT22;7554;43.600;1.480;2023-11-19T14:11:01;15.30;1.00
14924;DHT22;7554;43.600;1.480;2023-11-19T14:13:30;15.30;1.00
14924;DHT22;7554;43.600;1.480;2023-11-19T14:15:57;15.30;1.00
14924;DHT22;7554;43.600;1.480;2023-11-19T14:18:23;15.30;1.00
14924;DHT22;7554;43.600;1.480;2023-11-19T14:20:51;15.10;1.00
14924;DHT22;7554;43.600;1.480;2023-11-19T14:23:18;15.20;1.00
14924;DHT22;7554;43.600;1.480;2023-11-19T14:25:45;15.20;1.00
14924;DHT22;7554;43.600;1.480;2023-11-19T14:28:13;15.30;1.00
14924;DHT22;7554;43.600;1.480;2023-11-19T14:30:41;15.20;1.00
14924;DHT22;7554;43.600;1.480;2023-11-19T14:33:10;15.30;1.00
14924;DHT22;7554;43.600;1.480;2023-11-19T14:35:37;15.30;1.00
14924;DHT22;7554;43.600;1.480;2023-11-19T14:38:05;15.30;1.00
14924;DHT22;7554;43.600;1.480;2023-11-19T14:40:35;15.30;1.00
14924;DHT22;7554;43.600;1.480;2023-11-19T14:43:02;15.30;1.00
14924;DHT22;7554;43.600;1.480;2023-11-19T14:45:30;15.30;1.00
14924;DHT22;7554;43.600;1.480;2023-11-19T14:47:58;15.30;1.00
14924;DHT22;7554;43.600;1.480;2023-11-19T14:50:26;15.30;1.00
14924;DHT22;7554;43.600;1.480;2023-11-19T14:52:54;15.30;1.00
14924;DHT22;7554;43.600;1.480;2023-11-19T14:55:21;15.30;1.00
14924;DHT22;7554;43.600;1.480;2023-11-19T14:57:49;15.20;1.00
14924;DHT22;7554;43.600;1.480;2023-11-19T15:00:17;15.20;1.00
14924;DHT22;7554;43.600;1.480;2023-11-19T15:02:44;15.20;1.00
14924;DHT22;7554;43.600;1.480;2023-11-19T15:05:13;15.30;1.00
14924;DHT22;7554;43.600;1.480;2023-11-19T15:07:40;15.30;1.00
14924;DHT22;7554;43.600;1.480;2023-11-19T15:10:08;15.40;1.00
14924;DHT22;7554;43.600;1.480;2023-11-19T15:12:37;15.40;1.00
14924;DHT22;7554;43.600;1.480;2023-11-19T15:15:07;15.40;1.00
14924;DHT22;7554;43.600;1.480;2023-11-19T15:17:35;15.50;1.00
14924;DHT22;7554;43.600;1.480;2023-11-19T15:20:04;15.50;1.00
14924;DHT22;7554;43.600;1.480;2023-11-19T15:22:33;15.50;1.00
14924;DHT22;7554;43.600;1.480;2023-11-19T15:25:01;15.60;1.00
14924;DHT22;7554;43.600;1.480;2023-11-19T15:27:28;15.50;1.00
14924;DHT22;7554;43.600;1.480;2023-11-19T15:29:56;15.50;1.00
14924;DHT22;7554;43.600;1.480;2023-11-19T15:32:24;15.40;1.00
14924;DHT22;7554;43.600;1.480;2023-11-19T15:34:51;15.40;1.00
14924;DHT22;7554;43.600;1.480;2023-11-19T15:37:18;15.30;1.00
14924;DHT22;7554;43.600;1.480;2023-11-19T15:39:47;15.10;1.00
14924;DHT22;7554;43.600;1.480;2023-11-19T15:42:17;15.20;1.00
14924;DHT22;7554;43.600;1.480;2023-11-19T15:44:44;15.30;1.00
14924;DHT22;7554;43.600;1.480;2023-11-19T15:47:11;15.20;1.00
14924;DHT22;7554;43.600;1.480;2023-11-19T15:49:40;15.10;1.00
14924;DHT22;7554;43.600;1.480;2023-11-19T15:52:07;15.00;1.00
14924;DHT22;7554;43.600;1.480;2023-11-19T15:54:35;15.00;1.00
14924;DHT22;7554;43.600;1.480;2023-11-19T15:57:04;15.00;1.00
14924;DHT22;7554;43.600;1.480;2023-11-19T15:59:32;14.90;1.00
14924;DHT22;7554;43.600;1.480;2023-11-19T16:01:59;14.90;1.00
14924;DHT22;7554;43.600;1.480;2023-11-19T16:04:27;14.80;1.00
14924;DHT22;7554;43.600;1.480;2023-11-19T16:06:54;14.80;1.00
14924;DHT22;7554;43.600;1.480;2023-11-19T16:09:21;14.70;1.00
14924;DHT22;7554;43.600;1.480;2023-11-19T16:11:48;14.70;1.00
14924;DHT22;7554;43.600;1.480;2023-11-19T16:14:17;14.70;1.00
14924;DHT22;7554;43.600;1.480;2023-11-19T16:16:44;14.80;1.00
14924;DHT22;7554;43.600;1.480;2023-11-19T16:19:12;14.80;1.00
14924;DHT22;7554;43.600;1.480;2023-11-19T16:21:39;14.80;1.00